Christmas, Florida
Current Conditions -  °F | °C
As of 4:58 PM on Friday 28 Nov 2014 (Local Time) from KTTS Reporting Station
Clear Clear  
Wind Chill: 59°   Ceiling: Unl
Heat Index: 59°   Visibility: 10mi
Dew Point: 46°   Wind: 12mph
Humidity: 63%   Direction: 360°N
Pressure: 30.25"   Gusts: 18mph
Location:  28.54°N, 81°W
Report Text: KTTS 282158Z AUTO 36010G16KT 10SM CLR 15/08 A3025 RMK AO2 SLP247
Loading
Personal Weather Stations






























Interactive Weather Map New forecast layout! Learn more

10-Day Weather Forecast

Advertisements
Track Severe Weather on mobile